This is the latest recevied weather packets stored in our database for station/object IZ1HMT-3. If no packets are shown the sender has not sent any weather packets the latest 10 day(s).
| Time | Temp. | Humidity | Pressure | Rain* | Wind** | Luminosity | Snow |
|---|---|---|---|---|---|---|---|
| 1788086151 | 31.67° C | 45% | 1016 hPa | - | - | - | - |
| 1788085547 | 32.22° C | 45% | 1015.9 hPa | - | - | - | - |
| 1788084943 | 32.22° C | 43% | 1016 hPa | - | - | - | - |
| 1788084339 | 33.33° C | 41% | 1016.1 hPa | - | - | - | - |
| 1788082526 | 40° C | 30% | 1016.1 hPa | - | - | - | - |
| 1788081921 | 40° C | 30% | 1016.1 hPa | - | - | - | - |
| 1788080713 | 40° C | 31% | 1016.1 hPa | - | - | - | - |
| 1788080108 | 39.44° C | 31% | 1016.1 hPa | - | - | - | - |
| 1788078296 | 38.89° C | 32% | 1016 hPa | - | - | - | - |
| 1788077691 | 38.33° C | 33% | 1015.9 hPa | - | - | - | - |
| 1788077087 | 37.78° C | 33% | 1015.8 hPa | - | - | - | - |
| 1788076483 | 37.78° C | 34% | 1015.7 hPa | - | - | - | - |
| 1788075275 | 35.56° C | 38% | 1015.7 hPa | - | - | - | - |
| 1788074670 | 34.44° C | 41% | 1015.6 hPa | - | - | - | - |
| 1788074066 | 34.44° C | 40% | 1015.6 hPa | - | - | - | - |
| 1788072857 | 31.67° C | 47% | 1015.6 hPa | - | - | - | - |
| 1788063046 | 25.56° C | 60% | 1015.1 hPa | - | - | - | - |
| 1788047943 | 25° C | 57% | 1015.5 hPa | - | - | - | - |
| 1788047339 | 25° C | 57% | 1015.4 hPa | - | - | - | - |
| 1788037672 | 26.11° C | 53% | 1014.9 hPa | - | - | - | - |
| 1788032839 | 26.11° C | 51% | 1014.9 hPa | - | - | - | - |
| 1788029215 | 27.78° C | 46% | 1014.3 hPa | - | - | - | - |
| 1788027402 | 29.44° C | 42% | 1013.8 hPa | - | - | - | - |
| 1788026195 | 30° C | 43% | 1013.6 hPa | - | - | - | - |
| 1788025590 | 30° C | 43% | 1013.7 hPa | - | - | - | - |
* Rain since midnight (hover to see other rain measurements)
** Current wind speed in m/s (hover to see current wind gust speed)